Terminal Aerodrome Forecast
Issued by NWS

Home | Current Version | Previous Version | Text Only | Print | Product List | Glossary On
Versions: 1 2 3 4 5 6 7 8 9 10 11 12 13 14 15 16
000
FTUS44 KCRP 231140
TAFLRD
TAF
KLRD 231140Z 2312/2412 09004KT P6SM OVC014
      TEMPO 2313/2315 5SM BR OVC009
     FM231600 15008KT P6SM OVC016
     FM240300 12008KT 6SM BR SCT006 BKN012=

USA.gov is the U.S. government's official web portal to all federal, state and local government web resources and services.